Latest Weather Observations for Richmond

IDN60901

Issued at 7:45 am EST Saturday 20 September 2014 (issued every 10 minutes, with the page automatically refreshed every 10 minutes)

About weather observations | Map of Sydney area stations | Latest observations for Sydney area | Other Formats
Station Details ID: 067105 Name: RICHMOND RAAF Lat: -33.60 Lon: 150.78 Height: 19.0 m
Data from the previous 72 hours. | See also: Recent months at Richmond
Date/Time
EST
Tmp

°C
App
Tmp
°C
Dew
Point
°C
Rel
Hum
%
Delta-T

°C
Wind Press
QNH
hPa
Press
MSL
hPa
Rain
since
9 am
mm
Dir
 
Spd
km/h
Gust
km/h
Spd
kts
Gust
kts
20/07:30am 6.8 4.7 6.5 98 0.1 NNW 7 9 4 5 1024.2 1024.2 0.0
20/07:13am 6.0 3.7 5.7 98 0.1 NNW 7 9 4 5 1023.9 1023.9 0.0
20/07:00am 5.5 3.3 5.2 98 0.1 NW 6 9 3 5 1023.7 1023.7 0.0
20/06:50am 5.1 2.6 4.8 98 0.1 NNW 7 9 4 5 1023.7 1023.7 0.0
20/06:30am 4.6 3.3 4.3 98 0.1 CALM 0 0 0 0 1023.4 1023.4 0.0
20/06:05am 3.7 2.3 3.4 98 0.1 CALM 0 0 0 0 1023.1 1023.1 0.0
20/06:00am 3.6 2.2 3.3 98 0.1 SSW 0 0 0 0 1023.0 1023.0 0.0
20/05:43am 3.0 0.6 2.3 95 0.3 SSW 4 6 2 3 1022.5 1022.5 0.0
20/05:42am 3.0 0.6 2.4 96 0.2 SSW 4 6 2 3 1022.5 1022.5 0.0
20/05:33am 3.2 1.6 2.5 95 0.3 SSW 0 6 0 3 1022.3 1022.3 0.0
20/05:30am 3.3 1.7 2.6 95 0.3 CALM 0 4 0 2 1022.3 1022.3 0.0
20/05:00am 3.8 2.3 3.2 96 0.2 CALM 0 0 0 0 1021.6 1021.6 0.0
20/04:30am 4.1 2.7 3.4 95 0.3 CALM 0 0 0 0 1021.4 1021.4 0.0
20/04:20am 4.3 2.9 3.4 94 0.4 CALM 0 0 0 0 1021.3 1021.3 0.0
20/04:17am 4.5 3.1 3.6 94 0.4 CALM 0 0 0 0 1021.3 1021.3 0.0
20/04:07am 4.8 3.5 4.2 96 0.3 CALM 0 2 0 1 1021.2 1021.2 0.0
20/04:00am 5.3 4.2 4.9 97 0.2 CALM 0 4 0 2 1021.2 1021.2 0.0
20/03:54am 5.0 3.4 4.4 96 0.3 WSW 2 7 1 4 1021.1 1021.1 0.0
20/03:50am 4.8 3.1 4.1 95 0.3 WSW 2 7 1 4 1021.1 1021.1 0.0
20/03:30am 5.6 4.5 4.9 95 0.3 CALM 0 0 0 0 1020.9 1020.9 0.0
20/03:00am 5.8 4.7 4.9 94 0.4 CALM 0 0 0 0 1021.2 1021.2 0.0
20/02:30am 6.5 5.4 5.3 92 0.5 CALM 0 0 0 0 1021.2 1021.2 0.0
20/02:00am 6.6 5.5 5.2 91 0.6 CALM 0 0 0 0 1021.5 1021.5 0.0
20/01:30am 6.7 5.6 5.0 89 0.7 CALM 0 0 0 0 1021.8 1021.8 0.0
20/01:00am 7.6 6.5 5.2 85 1.1 CALM 0 0 0 0 1021.9 1021.9 0.0
20/12:30am 8.2 7.1 5.3 82 1.3 CALM 0 0 0 0 1022.1 1022.1 0.0
20/12:00am 8.8 7.9 5.9 82 1.3 WSW 0 0 0 0 1022.0 1022.0 0.0
 
Date/Time
EST
Tmp

°C
App
Tmp
°C
Dew
Point
°C
Rel
Hum
%
Delta-T

°C
Wind Press
QNH
hPa
Press
MSL
hPa
Rain
since
9 am
mm
Dir
 
Spd
km/h
Gust
km/h
Spd
kts
Gust
kts
19/11:30pm 9.6 7.5 5.8 77 1.7 WSW 6 7 3 4 1022.1 1022.1 0.0
19/11:00pm 9.8 8.5 6.0 77 1.7 WSW 2 6 1 3 1022.2 1022.2 0.0
19/10:30pm 10.7 8.5 6.1 73 2.1 WSW 7 9 4 5 1022.3 1022.3 0.0
19/10:00pm 10.2 8.0 5.4 72 2.2 WSW 6 9 3 5 1022.3 1022.3 0.0
19/09:30pm 11.2 8.6 6.3 72 2.3 SW 9 11 5 6 1022.2 1022.2 0.0
19/09:00pm 11.7 8.4 6.4 70 2.5 SW 13 15 7 8 1021.9 1021.9 0.0
19/08:30pm 11.9 9.0 6.6 70 2.5 SW 11 13 6 7 1021.6 1021.6 0.0
19/08:00pm 12.6 9.3 6.2 65 3.0 SW 13 19 7 10 1021.3 1021.3 0.0
19/07:30pm 13.6 10.0 5.0 56 4.0 SSW 13 17 7 9 1020.9 1020.9 0.0
19/07:00pm 14.5 11.0 5.3 54 4.3 SSE 13 17 7 9 1020.4 1020.4 0.0
19/06:30pm 15.7 12.1 5.0 49 5.1 S 13 20 7 11 1019.6 1019.6 0.0
19/06:00pm 16.4 13.7 2.8 40 6.2 NE 6 9 3 5 1019.0 1019.0 0.0
19/05:30pm 17.4 14.6 3.0 38 6.6 NNE 7 11 4 6 1018.6 1018.6 0.0
19/05:00pm 18.6 15.8 3.3 36 7.1 NE 7 11 4 6 1018.3 1018.3 0.0
19/04:30pm 18.9 15.3 2.7 34 7.5 NNE 11 15 6 8 1018.2 1018.2 0.0
19/04:00pm 19.4 15.5 1.4 30 8.1 NE 11 13 6 7 1017.9 1017.9 0.0
19/03:30pm 19.7 16.8 1.2 29 8.4 NNE 6 13 3 7 1018.0 1018.0 0.0
19/03:00pm 19.6 15.9 2.5 32 7.9 NNE 11 19 6 10 1018.2 1018.2 0.0
19/02:30pm 19.9 17.4 3.6 34 7.7 NW 6 9 3 5 1018.5 1018.5 0.0
19/02:00pm 19.1 16.3 2.9 34 7.5 ENE 7 13 4 7 1018.8 1018.8 0.0
19/01:30pm 18.4 15.4 2.3 34 7.4 NNE 7 11 4 6 1019.1 1019.1 0.0
19/01:00pm 18.2 15.4 2.9 36 7.0 SSE 7 15 4 8 1019.7 1019.7 0.0
19/12:30pm 17.8 14.9 2.5 36 7.0 SSW 7 13 4 7 1020.1 1020.1 0.0
19/12:00pm 17.6 14.8 3.1 38 6.7 N 7 13 4 7 1020.5 1020.5 0.0
19/11:30am 17.1 14.7 4.4 43 6.0 E 6 15 3 8 1021.0 1021.0 0.0
19/11:00am 16.3 14.2 3.7 43 5.8 NE 4 9 2 5 1021.7 1021.7 0.0
19/10:30am 14.7 12.2 3.8 48 5.0 ENE 6 11 3 6 1022.2 1022.2 0.0
19/10:00am 13.9 11.4 3.7 50 4.6 ENE 6 9 3 5 1022.5 1022.5 0.0
19/09:30am 13.3 11.0 5.5 59 3.7 NE 7 11 4 6 1022.7 1022.7 0.0
19/09:00am 11.3 9.1 5.4 67 2.7 NNE 6 9 3 5 1022.7 1022.7 0.0
19/08:30am 10.4 9.1 6.2 75 2.0 ENE 2 7 1 4 1022.7 1022.7 0.0
19/08:00am 8.7 7.2 4.9 77 1.7 NNE 2 6 1 3 1022.7 1022.7 0.0
19/07:30am 8.0 7.0 5.5 84 1.1 CALM 0 0 0 0 1022.4 1022.4 0.0
19/07:00am 5.7 4.6 5.0 95 0.3 CALM 0 0 0 0 1022.3 1022.3 0.0
19/06:30am 4.2 2.8 3.8 97 0.2 CALM 0 6 0 3 1022.2 1022.2 0.0
19/06:00am 3.4 1.9 3.0 97 0.2 CALM 0 0 0 0 1021.9 1021.9 0.0
19/05:30am 3.2 0.8 2.3 94 0.4 SSE 4 9 2 5 1021.7 1021.7 0.0
19/05:00am 3.8 1.2 3.2 96 0.2 NNE 6 6 3 3 1021.3 1021.3 0.0
19/04:30am 3.8 2.3 2.9 94 0.4 CALM 0 0 0 0 1021.0 1021.0 0.0
19/04:00am 4.5 2.4 3.9 96 0.2 NNW 4 6 2 3 1020.9 1020.9 0.0
19/03:30am 5.5 4.3 4.5 93 0.4 CALM 0 0 0 0 1020.7 1020.7 0.0
19/03:00am 4.5 3.0 3.2 91 0.5 CALM 0 0 0 0 1020.6 1020.6 0.0
19/02:30am 4.5 3.0 3.0 90 0.6 CALM 0 0 0 0 1020.7 1020.7 0.0
19/02:00am 5.7 4.4 3.9 88 0.8 CALM 0 0 0 0 1020.9 1020.9 0.0
19/01:30am 6.5 5.3 4.5 87 0.9 CALM 0 0 0 0 1021.1 1021.1 0.0
19/01:00am 6.8 5.2 4.6 86 1.0 ESE 2 6 1 3 1021.2 1021.2 0.0
19/12:30am 7.9 5.8 5.7 86 1.0 E 6 6 3 3 1021.2 1021.2 0.0
19/12:00am 8.0 5.6 4.4 78 1.6 ENE 6 7 3 4 1021.3 1021.3 0.0
 
Date/Time
EST
Tmp

°C
App
Tmp
°C
Dew
Point
°C
Rel
Hum
%
Delta-T

°C
Wind Press
QNH
hPa
Press
MSL
hPa
Rain
since
9 am
mm
Dir
 
Spd
km/h
Gust
km/h
Spd
kts
Gust
kts
18/11:30pm 7.8 6.5 4.0 77 1.6 CALM 0 0 0 0 1021.5 1021.5 0.0
18/11:00pm 8.7 6.6 4.1 73 2.0 W 4 7 2 4 1021.7 1021.7 0.0
18/10:30pm 9.8 8.3 4.8 71 2.2 NW 2 9 1 5 1021.7 1021.7 0.0
18/10:00pm 10.2 8.4 5.4 72 2.2 WNW 4 7 2 4 1021.5 1021.5 0.0
18/09:30pm 10.7 9.6 5.3 69 2.5 CALM 0 0 0 0 1021.5 1021.5 0.0
18/09:00pm 11.2 8.5 5.5 68 2.6 WNW 9 9 5 5 1021.6 1021.6 0.0
18/08:30pm 12.1 9.3 5.3 63 3.1 W 9 9 5 5 1021.5 1021.5 0.0
18/08:00pm 12.1 9.4 5.7 65 3.0 WNW 9 11 5 6 1021.2 1021.2 0.0
18/07:30pm 12.6 10.6 6.4 66 2.9 S 6 7 3 4 1020.9 1020.9 0.0
18/07:00pm 13.1 10.6 4.0 54 4.1 S 6 7 3 4 1020.2 1020.2 0.0
18/06:30pm 14.0 11.8 3.2 48 4.8 SSE 4 6 2 3 1019.8 1019.8 0.0
18/06:00pm 14.7 11.9 3.2 46 5.2 SSE 7 13 4 7 1019.3 1019.3 0.0
18/05:30pm 15.3 11.1 3.8 46 5.3 SE 15 20 8 11 1018.8 1018.8 0.0
18/05:00pm 16.2 10.9 2.9 41 6.0 SE 20 30 11 16 1017.9 1017.9 0.0
18/04:30pm 17.3 11.2 2.9 38 6.6 SE 24 30 13 16 1017.1 1017.1 0.0
18/04:00pm 19.0 14.7 -1.4 25 8.7 SE 11 15 6 8 1016.5 1016.5 0.0
18/03:30pm 19.4 15.3 -0.1 27 8.6 SSE 11 17 6 9 1016.4 1016.4 0.0
18/03:00pm 19.3 15.1 -0.7 26 8.6 SSE 11 17 6 9 1016.3 1016.3 0.0
18/02:30pm 19.2 15.6 0.3 28 8.3 ESE 9 17 5 9 1016.2 1016.2 0.0
18/02:00pm 18.9 13.4 -2.1 24 8.8 SSE 17 20 9 11 1016.3 1016.3 0.0
18/01:30pm 19.5 15.5 0.5 28 8.4 SE 11 17 6 9 1016.4 1016.4 0.0
18/01:00pm 18.8 15.3 -1.6 25 8.6 W 7 11 4 6 1016.7 1016.7 0.0
18/12:30pm 18.5 13.9 -1.3 26 8.4 WNW 13 20 7 11 1017.1 1017.1 0.0
18/12:00pm 17.9 13.8 -2.9 24 8.5 SSW 9 22 5 12 1017.6 1017.6 0.0
18/11:30am 17.5 13.8 -3.3 24 8.4 SSE 7 13 4 7 1018.0 1018.0 0.0
18/11:00am 17.9 12.2 -0.8 28 8.0 S 19 22 10 12 1018.3 1018.3 0.0
18/10:30am 17.7 13.1 -1.0 28 7.9 SSW 13 22 7 12 1018.5 1018.5 0.0
18/10:00am 16.4 11.1 -0.3 32 7.1 SSW 17 26 9 14 1018.8 1018.8 0.0
18/09:30am 15.9 10.8 0.9 36 6.5 SW 17 24 9 13 1018.9 1018.9 0.0
18/09:00am 15.3 11.1 1.8 40 5.9 SW 13 19 7 10 1019.0 1019.0 0.0
18/08:30am 14.1 10.4 2.4 45 5.2 SSW 11 17 6 9 1019.1 1019.1 0.0
18/08:00am 11.8 8.7 5.7 66 2.8 SSE 11 15 6 8 1018.8 1018.8 0.0
18/07:30am 9.2 7.8 5.6 78 1.6 S 2 7 1 4 1018.6 1018.6 0.0
18/07:00am 8.0 6.9 5.3 83 1.2 CALM 0 2 0 1 1018.2 1018.2 0.0
18/06:30am 6.1 4.7 3.4 83 1.1 CALM 0 0 0 0 1017.8 1017.8 0.0
18/06:00am 5.3 3.8 3.2 86 0.9 CALM 0 0 0 0 1017.3 1017.3 0.0
18/05:30am 4.9 3.3 2.4 84 1.0 CALM 0 0 0 0 1017.0 1017.0 0.0
18/05:00am 5.8 3.6 3.3 84 1.0 NNE 4 7 2 4 1017.1 1017.1 0.0
18/04:30am 5.8 3.0 3.0 82 1.2 W 7 13 4 7 1016.6 1016.6 0.0
18/04:00am 6.1 3.9 3.3 82 1.2 NW 4 19 2 10 1016.3 1016.3 0.0
18/03:30am 6.4 4.6 3.4 81 1.3 S 2 13 1 7 1016.0 1016.0 0.0
18/03:00am 7.0 4.4 3.1 76 1.6 SE 6 7 3 4 1015.7 1015.7 0.0
18/02:30am 7.9 5.8 3.8 75 1.8 S 4 9 2 5 1015.6 1015.6 0.0
18/02:00am 10.1 8.6 3.2 62 3.0 CALM 0 7 0 4 1015.6 1015.6 0.0
18/01:30am 12.1 8.4 2.3 51 4.2 W 11 15 6 8 1015.5 1015.5 0.0
18/01:00am 10.7 7.7 2.0 55 3.7 WNW 7 9 4 5 1015.7 1015.7 0.0
18/12:30am 11.2 7.9 2.2 54 3.9 W 9 13 5 7 1015.6 1015.6 0.0
18/12:00am 12.1 8.4 2.6 52 4.1 WSW 11 13 6 7 1015.5 1015.5 0.0
 
Date/Time
EST
Tmp

°C
App
Tmp
°C
Dew
Point
°C
Rel
Hum
%
Delta-T

°C
Wind Press
QNH
hPa
Press
MSL
hPa
Rain
since
9 am
mm
Dir
 
Spd
km/h
Gust
km/h
Spd
kts
Gust
kts
17/11:30pm 12.8 9.6 2.9 51 4.4 WSW 9 13 5 7 1015.4 1015.4 0.0
17/11:00pm 12.5 8.9 3.2 53 4.1 W 11 15 6 8 1015.3 1015.3 0.0
17/10:30pm 12.5 9.3 2.9 52 4.2 W 9 11 5 6 1015.2 1015.2 0.0
17/10:00pm 14.8 11.3 3.6 47 5.1 WSW 11 20 6 11 1014.9 1014.9 0.0
17/09:30pm 13.5 10.4 3.8 52 4.4 W 9 19 5 10 1014.8 1014.8 0.0
17/09:00pm 13.9 10.8 3.7 50 4.6 WNW 9 15 5 8 1014.7 1014.7 0.0
17/08:30pm 12.8 9.7 3.7 54 4.1 WNW 9 11 5 6 1014.3 1014.3 0.0
17/08:00pm 13.6 10.9 3.7 51 4.5 NW 7 9 4 5 1014.3 1014.3 0.0
17/07:30pm 15.2 12.1 3.7 46 5.3 NW 9 13 5 7 1013.9 1013.9 0.0
17/07:00pm 14.7 10.5 3.8 48 5.0 W 15 20 8 11 1013.5 1013.5 0.0
17/06:30pm 15.1 10.6 4.2 48 5.0 WNW 17 20 9 11 1013.1 1013.1 0.0
17/06:00pm 16.3 11.4 4.0 44 5.7 WNW 19 26 10 14 1012.8 1012.8 0.0
17/05:30pm 17.4 12.8 3.7 40 6.4 NW 17 22 9 12 1012.5 1012.5 0.0
17/05:00pm 18.8 12.1 3.8 37 7.1 WNW 28 39 15 21 1012.2 1012.2 0.0
17/04:30pm 19.7 12.5 3.0 33 7.8 W 30 43 16 23 1011.8 1011.8 0.0
17/04:00pm 19.5 13.8 2.8 33 7.8 W 22 33 12 18 1011.3 1011.3 0.0
17/03:30pm 20.4 13.1 2.3 30 8.4 W 30 41 16 22 1011.0 1011.0 0.0
17/03:00pm 21.3 14.1 3.0 30 8.7 W 30 43 16 23 1010.8 1010.8 0.0
17/02:30pm 20.8 13.1 2.1 29 8.7 W 32 44 17 24 1010.9 1010.9 0.0
17/02:00pm 21.0 13.0 1.8 28 8.9 W 33 44 18 24 1010.8 1010.8 0.0
17/01:35pm 20.8 13.2 2.6 30 8.5 WSW 32 50 17 27 1011.0 1011.0 0.0
17/01:30pm 20.7 12.4 2.0 29 8.6 WSW 35 50 19 27 1011.1 1011.1 0.0
17/01:00pm 20.6 12.7 2.4 30 8.5 W 33 43 18 23 1010.9 1010.9 0.0
17/12:30pm 21.2 14.5 3.4 31 8.5 W 28 50 15 27 1010.8 1010.8 0.0
17/12:28pm 21.2 14.4 3.0 30 8.6 W 28 50 15 27 1010.8 1010.8 0.0
17/12:00pm 21.0 15.7 3.2 31 8.5 W 20 30 11 16 1011.0 1011.0 0.0
17/11:30am 20.4 14.8 3.2 32 8.1 W 22 33 12 18 1011.3 1011.3 0.0
17/11:00am 20.0 14.7 2.8 32 8.0 WSW 20 30 11 16 1011.7 1011.7 0.0
17/10:30am 19.8 13.8 3.1 33 7.8 WSW 24 35 13 19 1012.1 1012.1 0.0
17/10:00am 18.9 13.2 3.1 35 7.4 WSW 22 37 12 20 1012.4 1012.4 0.0
17/09:30am 18.5 11.5 1.9 33 7.5 WSW 28 44 15 24 1012.8 1012.8 0.0
17/09:00am 18.2 12.9 2.9 36 7.1 SW 20 39 11 21 1013.1 1013.1 0.2
17/08:30am 17.4 10.1 2.6 37 6.7 SW 30 39 16 21 1013.1 1013.1 0.2
17/08:00am 16.6 12.0 3.6 42 6.0 WSW 17 32 9 17 1013.0 1013.0 0.2

Latest Capital City Observations: Canberra | Sydney | Melbourne | Brisbane | Adelaide | Perth | Hobart | Darwin

Other Formats:

Comma delimited format used in spreadsheet applications
http://www.bom.gov.au/fwo/IDN60901/IDN60901.95753.axf

JavaScript Object Notation format (JSON) in row-major order
http://www.bom.gov.au/fwo/IDN60901/IDN60901.95753.json